createdAt,value
2023-05-09T00:03:17.384Z,2.42
2023-05-09T00:08:38.038Z,1.48
2023-05-09T00:13:58.812Z,3.47
2023-05-09T00:19:19.149Z,3.00
2023-05-09T00:24:39.355Z,2.80
2023-05-09T00:29:59.844Z,2.70
2023-05-09T00:35:20.927Z,2.45
2023-05-09T00:40:41.900Z,2.80
2023-05-09T00:46:02.717Z,2.45
2023-05-09T00:51:24.055Z,2.47
2023-05-09T00:56:45.152Z,2.45
2023-05-09T01:02:05.858Z,2.63
2023-05-09T01:07:43.565Z,2.85
2023-05-09T01:13:15.044Z,2.10
2023-05-09T01:18:56.204Z,2.50
2023-05-09T01:24:39.984Z,3.08
2023-05-09T01:30:03.808Z,2.15
2023-05-09T01:35:26.454Z,2.67
2023-05-09T01:40:51.276Z,2.35
2023-05-09T01:46:14.221Z,2.60
2023-05-09T01:51:36.540Z,3.83
2023-05-09T01:56:58.863Z,2.83
2023-05-09T02:02:19.419Z,2.33
2023-05-09T02:07:41.707Z,2.20
2023-05-09T02:13:02.938Z,3.13
2023-05-09T02:18:23.605Z,2.70
2023-05-09T02:23:43.841Z,2.58
2023-05-09T02:29:07.025Z,2.67
2023-05-09T02:34:27.704Z,2.75
2023-05-09T02:39:50.672Z,2.72
2023-05-09T02:45:11.560Z,1.90
2023-05-09T02:50:32.284Z,2.45
2023-05-09T02:55:53.892Z,2.88
2023-05-09T03:01:14.796Z,2.80
2023-05-09T03:06:35.112Z,2.83
2023-05-09T03:11:56.765Z,2.58
2023-05-09T03:17:21.120Z,2.67
2023-05-09T03:28:05.521Z,3.38
2023-05-09T03:33:26.247Z,2.92
2023-05-09T03:38:48.022Z,3.00
2023-05-09T03:44:09.196Z,3.00
2023-05-09T03:49:29.768Z,2.30
2023-05-09T03:54:50.692Z,3.10
2023-05-09T04:00:12.543Z,2.92
2023-05-09T04:05:42.187Z,3.25
2023-05-09T04:11:08.313Z,3.03
2023-05-09T04:16:31.758Z,3.80
2023-05-09T04:21:53.965Z,3.30
2023-05-09T04:27:14.979Z,2.80
2023-05-09T04:32:36.821Z,3.40
2023-05-09T04:37:57.297Z,3.20
2023-05-09T04:43:20.016Z,3.53
2023-05-09T04:56:13.255Z,3.08
2023-05-09T05:01:33.559Z,3.40
2023-05-09T05:06:54.732Z,2.70
2023-05-09T05:12:16.377Z,3.22
2023-05-09T05:17:38.436Z,3.20
2023-05-09T05:23:01.227Z,3.20
2023-05-09T05:28:21.679Z,3.60
2023-05-09T05:33:42.732Z,3.05
2023-05-09T05:39:04.771Z,3.17
2023-05-09T05:44:25.498Z,2.95
2023-05-09T05:49:46.266Z,3.47
2023-05-09T05:55:07.761Z,3.40
2023-05-09T06:00:29.473Z,3.08
2023-05-09T06:05:56.551Z,3.55
2023-05-09T06:11:17.902Z,3.40
2023-05-09T06:16:38.888Z,4.15
2023-05-09T06:21:59.580Z,3.60
2023-05-09T06:27:20.300Z,3.75
2023-05-09T06:32:40.827Z,5.10
2023-05-09T06:38:01.408Z,3.90
2023-05-09T06:43:22.094Z,4.65
2023-05-09T06:48:44.008Z,4.13
2023-05-09T06:54:04.824Z,5.35
2023-05-09T06:59:25.229Z,4.65
2023-05-09T07:04:45.608Z,4.63
2023-05-09T07:10:11.425Z,3.65
2023-05-09T07:15:41.545Z,4.63
2023-05-09T07:21:03.707Z,4.82
2023-05-09T07:26:24.089Z,4.72
2023-05-09T07:31:44.963Z,4.45
2023-05-09T07:37:05.641Z,5.07
2023-05-09T07:42:26.369Z,4.40
2023-05-09T07:47:47.209Z,4.57
2023-05-09T07:53:07.793Z,4.80
2023-05-09T07:58:28.196Z,5.40
2023-05-09T08:03:48.932Z,4.93
2023-05-09T08:09:10.416Z,5.40
2023-05-09T08:14:31.474Z,5.43
2023-05-09T08:19:52.158Z,4.85
2023-05-09T08:25:15.270Z,5.13
2023-05-09T08:30:36.983Z,5.32
2023-05-09T08:35:57.289Z,5.57
2023-05-09T08:41:20.838Z,5.95
2023-05-09T08:46:44.483Z,5.70
2023-05-09T08:52:05.581Z,5.23
2023-05-09T08:57:27.937Z,5.22
2023-05-09T09:02:49.475Z,6.25
2023-05-09T09:08:11.732Z,6.05
2023-05-09T09:13:36.135Z,4.82
2023-05-09T09:18:58.912Z,5.55
2023-05-09T09:24:22.927Z,5.28
2023-05-09T09:29:43.422Z,5.80
2023-05-09T09:35:09.991Z,5.88
2023-05-09T09:40:30.958Z,6.10
2023-05-09T09:45:54.033Z,5.60
2023-05-09T09:51:14.545Z,5.72
2023-05-09T09:56:43.942Z,5.65
2023-05-09T10:02:08.225Z,6.00
2023-05-09T10:07:34.035Z,5.88
2023-05-09T10:12:58.365Z,5.95
2023-05-09T10:18:21.908Z,5.68
2023-05-09T10:23:48.429Z,6.33
2023-05-09T10:29:12.567Z,6.30
2023-05-09T10:39:57.364Z,7.18
2023-05-09T10:45:19.738Z,7.27
2023-05-09T10:50:42.750Z,9.20
2023-05-09T10:56:03.072Z,7.47
2023-05-09T11:01:35.352Z,7.80
2023-05-09T11:06:57.720Z,7.25
2023-05-09T11:12:21.886Z,8.18
2023-05-09T11:17:42.687Z,7.57
2023-05-09T11:23:04.801Z,9.02
2023-05-09T11:28:36.610Z,8.00
2023-05-09T11:34:04.631Z,9.23
2023-05-09T11:39:25.669Z,9.30
2023-05-09T11:44:48.487Z,9.55
2023-05-09T11:50:10.474Z,8.02
2023-05-09T11:55:32.602Z,7.95
2023-05-09T12:00:53.208Z,8.40
2023-05-09T12:06:16.484Z,8.80
2023-05-09T12:11:37.257Z,8.77
2023-05-09T12:16:58.458Z,8.85
2023-05-09T12:22:20.103Z,8.80
2023-05-09T12:27:41.722Z,9.07
2023-05-09T12:33:02.567Z,9.60
2023-05-09T12:38:23.310Z,9.93
2023-05-09T12:43:48.938Z,10.82
2023-05-09T12:49:20.915Z,10.07
2023-05-09T12:54:46.286Z,10.07
2023-05-09T13:00:09.754Z,10.25
2023-05-09T13:05:31.718Z,9.93
2023-05-09T13:11:00.798Z,9.82
2023-05-09T13:16:28.870Z,9.35
2023-05-09T13:21:49.351Z,8.93
2023-05-09T13:27:10.950Z,8.80
2023-05-09T13:32:31.587Z,7.93
2023-05-09T13:37:52.291Z,7.30
2023-05-09T13:43:12.418Z,6.85
2023-05-09T13:48:33.159Z,7.32
2023-05-09T13:53:53.870Z,6.32
2023-05-09T13:59:15.116Z,6.20
2023-05-09T14:04:35.698Z,4.85
2023-05-09T14:10:08.386Z,5.75
2023-05-09T14:15:36.447Z,5.15
2023-05-09T14:20:56.705Z,5.63
2023-05-09T14:26:17.648Z,4.97
2023-05-09T14:31:38.397Z,4.95
2023-05-09T14:43:58.091Z,5.13
2023-05-09T14:49:18.700Z,5.22
2023-05-09T14:54:39.507Z,5.93
2023-05-09T15:00:12.534Z,6.20
2023-05-09T15:05:37.622Z,4.68
2023-05-09T15:10:58.266Z,4.22
2023-05-09T15:16:19.581Z,4.70
2023-05-09T15:21:40.303Z,4.47
2023-05-09T15:27:00.847Z,3.88
2023-05-09T15:32:21.242Z,4.32
2023-05-09T15:37:41.913Z,4.45
2023-05-09T15:43:08.007Z,4.03
2023-05-09T15:48:31.905Z,3.92
2023-05-09T15:53:52.614Z,4.05
2023-05-09T15:59:12.897Z,5.18
2023-05-09T16:04:33.529Z,6.38
2023-05-09T16:09:53.855Z,9.82
2023-05-09T16:15:14.409Z,12.10
2023-05-09T16:20:34.614Z,12.43
2023-05-09T16:25:55.183Z,15.15
2023-05-09T16:31:15.536Z,15.63
2023-05-09T16:36:37.647Z,13.70
2023-05-09T16:41:58.578Z,14.95
2023-05-09T16:47:18.918Z,15.40
2023-05-09T16:52:39.797Z,15.25
2023-05-09T16:58:00.333Z,15.07
2023-05-09T17:03:20.949Z,15.48
2023-05-09T17:08:41.447Z,14.50
2023-05-09T17:14:03.294Z,13.98
2023-05-09T17:19:23.755Z,14.68
2023-05-09T17:24:44.264Z,13.68
2023-05-09T17:30:05.798Z,15.02
2023-05-09T17:35:26.329Z,15.15
2023-05-09T17:40:47.244Z,14.02
2023-05-09T17:46:08.055Z,13.40
2023-05-09T17:51:29.405Z,12.85
2023-05-09T17:56:55.241Z,12.63
2023-05-09T18:02:16.727Z,13.75
2023-05-09T18:07:39.367Z,14.25
2023-05-09T18:13:00.250Z,14.77
2023-05-09T18:18:20.708Z,15.80
2023-05-09T18:23:41.390Z,15.68
2023-05-09T18:29:01.896Z,16.50
2023-05-09T18:34:22.533Z,15.70
2023-05-09T18:39:43.365Z,15.93
2023-05-09T18:45:05.786Z,16.63
2023-05-09T18:50:27.750Z,15.50
2023-05-09T18:55:48.133Z,15.98
2023-05-09T19:01:11.448Z,16.42
2023-05-09T19:06:32.523Z,16.23
2023-05-09T19:11:56.467Z,16.73
2023-05-09T19:17:17.495Z,16.25
2023-05-09T19:22:41.122Z,16.73
2023-05-09T19:28:01.958Z,16.25
2023-05-09T19:33:22.407Z,17.65
2023-05-09T19:38:42.793Z,16.00
2023-05-09T19:44:03.630Z,17.02
2023-05-09T19:49:26.355Z,16.42
2023-05-09T19:54:47.106Z,15.95
2023-05-09T20:00:08.926Z,16.02
2023-05-09T20:05:29.372Z,16.05
2023-05-09T20:10:49.966Z,15.32
2023-05-09T20:16:11.185Z,15.30
2023-05-09T20:21:32.035Z,15.55
2023-05-09T20:26:55.035Z,15.90
2023-05-09T20:32:16.228Z,16.25
2023-05-09T20:37:37.354Z,15.82
2023-05-09T20:42:58.176Z,17.00
2023-05-09T20:48:19.161Z,15.82
2023-05-09T20:53:39.861Z,16.85
2023-05-09T20:59:01.030Z,16.70
2023-05-09T21:04:22.199Z,18.00
2023-05-09T21:09:42.479Z,16.88
2023-05-09T21:15:03.155Z,15.98
2023-05-09T21:20:23.768Z,9.73
2023-05-09T21:25:44.684Z,5.57
2023-05-09T21:31:05.576Z,3.75
2023-05-09T21:36:25.999Z,2.75
2023-05-09T21:41:47.388Z,2.45
2023-05-09T21:47:08.279Z,2.78
2023-05-09T21:52:28.735Z,2.35
2023-05-09T21:57:49.382Z,2.95
2023-05-09T22:03:09.881Z,2.72
2023-05-09T22:08:30.504Z,3.15
2023-05-09T22:13:50.693Z,2.63
2023-05-09T22:19:11.178Z,2.50
2023-05-09T22:24:31.629Z,2.78
2023-05-09T22:29:52.254Z,2.65
2023-05-09T22:35:13.185Z,2.60
2023-05-09T22:40:34.149Z,2.70
2023-05-09T22:45:54.854Z,2.88
2023-05-09T22:51:15.572Z,2.78
2023-05-09T22:56:36.317Z,2.60
2023-05-09T23:01:57.844Z,3.00
2023-05-09T23:07:18.321Z,3.15
2023-05-09T23:12:38.622Z,3.03
2023-05-09T23:17:59.193Z,2.60
2023-05-09T23:23:19.865Z,2.80
2023-05-09T23:28:40.586Z,2.83
2023-05-09T23:34:01.563Z,2.78
2023-05-09T23:39:22.118Z,3.17
2023-05-09T23:44:42.547Z,2.65
2023-05-09T23:50:03.518Z,2.88
2023-05-09T23:55:23.915Z,2.83
